Time;durP1;ratioP1;P1;durP2;ratioP2;P2;SDS_P1;SDS_P2;PMS_P1;PMS_P2;Temp;Humidity;BMP_temperature;BMP_pressure;BME280_temperature;BME280_humidity;BME280_pressure;Samples;Min_cycle;Max_cycle;Signal;HPM_P1;HPM_P2
2022/06/23 00:00:05;;;;;;;;;;;22.30;56.30;;;;;;5072965;28;20390;-69
2022/06/23 00:02:32;;;;;;;;;;;22.30;56.20;;;;;;5071273;28;19923;-69
2022/06/23 00:04:59;;;;;;;;;;;22.30;56.20;;;;;;5070469;28;20540;-69
2022/06/23 00:07:27;;;;;;;;;;;22.30;56.20;;;;;;5071902;28;19935;-69
2022/06/23 00:09:54;;;;;;;;;;;22.30;56.30;;;;;;5070824;28;19924;-69
2022/06/23 00:12:19;;;;;;;;;;;22.30;56.20;;;;;;5070622;28;19923;-69
2022/06/23 00:14:44;;;;;;;;;;;22.30;56.20;;;;;;5072620;28;19928;-69
2022/06/23 00:17:28;;;;;;;;;;;22.30;56.20;;;;;;5072348;28;19924;-69
2022/06/23 00:19:55;;;;;;;;;;;22.30;56.30;;;;;;5072882;28;20264;-69
2022/06/23 00:22:22;;;;;;;;;;;22.30;56.20;;;;;;5073528;28;19924;-69
2022/06/23 00:24:48;;;;;;;;;;;22.30;56.20;;;;;;5071085;28;19962;-69
2022/06/23 00:27:15;;;;;;;;;;;22.30;56.20;;;;;;5073731;28;19920;-69
2022/06/23 00:29:43;;;;;;;;;;;22.30;56.20;;;;;;5073421;28;19928;-69
2022/06/23 00:32:09;;;;;;;;;;;22.30;56.30;;;;;;5071035;28;19935;-69
2022/06/23 00:34:39;;;;;;;;;;;22.30;56.30;;;;;;5070987;28;19924;-69
2022/06/23 00:37:05;;;;;;;;;;;22.30;56.20;;;;;;5069809;28;19936;-69
2022/06/23 00:39:35;;;;;;;;;;;22.30;56.20;;;;;;5072343;28;19967;-69
2022/06/23 00:42:02;;;;;;;;;;;22.30;56.20;;;;;;5073113;28;19928;-69
2022/06/23 00:44:40;;;;;;;;;;;22.30;56.20;;;;;;5072353;28;19967;-69
2022/06/23 00:47:11;;;;;;;;;;;22.30;56.20;;;;;;5070980;28;19924;-69
2022/06/23 00:49:57;;;;;;;;;;;22.30;56.30;;;;;;5071073;28;19963;-70
2022/06/23 00:52:27;;;;;;;;;;;22.30;56.30;;;;;;5072121;28;19958;-70
2022/06/23 00:54:53;;;;;;;;;;;22.30;56.30;;;;;;5073213;28;19921;-70
2022/06/23 00:57:22;;;;;;;;;;;22.30;56.40;;;;;;5071676;28;19924;-70
2022/06/23 00:59:50;;;;;;;;;;;22.30;56.30;;;;;;5068824;28;19932;-70
2022/06/23 01:02:19;;;;;;;;;;;22.30;56.20;;;;;;5077737;28;19923;-71
2022/06/23 01:05:08;;;;;;;;;;;22.30;56.20;;;;;;5072549;28;19928;-70
2022/06/23 01:07:41;;;;;;;;;;;22.30;56.20;;;;;;5065745;28;20751;-70
2022/06/23 01:10:19;;;;;;;;;;;22.30;56.20;;;;;;5071307;28;19931;-70
2022/06/23 01:12:52;;;;;;;;;;;22.30;56.20;;;;;;5073310;28;19924;-70
2022/06/23 01:15:18;;;;;;;;;;;22.30;56.10;;;;;;5069964;28;20014;-70
2022/06/23 01:17:48;;;;;;;;;;;22.30;56.10;;;;;;5071626;28;20069;-70
2022/06/23 01:20:16;;;;;;;;;;;22.30;56.20;;;;;;5070230;28;19920;-69
2022/06/23 01:22:48;;;;;;;;;;;22.30;56.20;;;;;;5070294;28;20023;-70
2022/06/23 01:25:30;;;;;;;;;;;22.30;56.40;;;;;;5069589;28;19924;-70
2022/06/23 01:28:04;;;;;;;;;;;22.30;56.40;;;;;;5064737;28;19985;-69
2022/06/23 01:30:47;;;;;;;;;;;22.30;56.50;;;;;;5066836;28;19928;-69
2022/06/23 01:33:17;;;;;;;;;;;22.30;56.50;;;;;;5072491;28;19927;-70
2022/06/23 01:35:47;;;;;;;;;;;22.30;56.50;;;;;;5068263;28;19927;-69
2022/06/23 01:38:13;;;;;;;;;;;22.30;56.60;;;;;;5068002;28;19943;-69
2022/06/23 01:40:47;;;;;;;;;;;22.30;56.60;;;;;;5071022;28;19935;-70
2022/06/23 01:43:19;;;;;;;;;;;22.30;56.60;;;;;;5071976;28;19924;-69
2022/06/23 01:45:59;;;;;;;;;;;22.30;56.60;;;;;;5070574;28;20375;-70
2022/06/23 01:51:28;;;;;;;;;;;22.30;56.50;;;;;;5068797;28;19930;-69
2022/06/23 01:54:06;;;;;;;;;;;22.30;56.40;;;;;;5071150;28;19928;-69
2022/06/23 01:56:38;;;;;;;;;;;22.30;56.40;;;;;;5068717;28;19950;-68
2022/06/23 01:59:15;;;;;;;;;;;22.30;56.40;;;;;;5070784;28;19950;-69
2022/06/23 02:01:52;;;;;;;;;;;22.30;56.40;;;;;;5068789;28;19928;-69
2022/06/23 02:04:25;;;;;;;;;;;22.30;56.40;;;;;;5069968;28;20011;-69
2022/06/23 02:06:53;;;;;;;;;;;22.30;56.40;;;;;;5072401;28;20002;-69
2022/06/23 02:09:22;;;;;;;;;;;22.30;56.40;;;;;;5068440;28;20032;-69
2022/06/23 02:11:49;;;;;;;;;;;22.30;56.40;;;;;;5071145;28;20434;-70
2022/06/23 02:14:19;;;;;;;;;;;22.30;56.40;;;;;;5070512;28;19924;-69
2022/06/23 02:17:08;;;;;;;;;;;22.30;56.40;;;;;;5064517;28;19920;-69
2022/06/23 02:19:41;;;;;;;;;;;22.20;56.30;;;;;;5069705;28;19925;-69
2022/06/23 02:22:25;;;;;;;;;;;22.30;56.40;;;;;;5053285;28;19924;-69
2022/06/23 02:25:11;;;;;;;;;;;22.20;56.30;;;;;;5069443;28;19971;-70
2022/06/23 02:27:49;;;;;;;;;;;22.30;56.40;;;;;;5071793;28;19925;-69
2022/06/23 02:30:17;;;;;;;;;;;22.20;56.20;;;;;;5068152;28;19927;-69
2022/06/23 02:32:54;;;;;;;;;;;22.30;56.30;;;;;;5069395;28;19978;-69
2022/06/23 02:35:32;;;;;;;;;;;22.30;56.30;;;;;;5069246;28;19954;-69
2022/06/23 02:38:08;;;;;;;;;;;22.30;56.40;;;;;;5069744;28;19932;-69
2022/06/23 02:40:51;;;;;;;;;;;22.20;56.30;;;;;;5071571;28;19928;-69
2022/06/23 02:43:27;;;;;;;;;;;22.20;56.20;;;;;;5073656;28;19924;-69
2022/06/23 02:45:58;;;;;;;;;;;22.20;56.30;;;;;;5074436;28;20363;-70
2022/06/23 02:48:42;;;;;;;;;;;22.20;56.30;;;;;;5074591;28;20418;-70
2022/06/23 02:51:07;;;;;;;;;;;22.20;56.20;;;;;;5059924;28;19962;-70
2022/06/23 02:53:44;;;;;;;;;;;22.20;56.20;;;;;;5074729;28;20371;-69
2022/06/23 02:56:36;;;;;;;;;;;22.20;56.20;;;;;;5073277;28;19931;-70
2022/06/23 02:59:08;;;;;;;;;;;22.20;56.20;;;;;;5068827;28;20028;-69
2022/06/23 03:01:43;;;;;;;;;;;22.20;56.10;;;;;;5073564;28;19924;-72
2022/06/23 03:04:08;;;;;;;;;;;22.20;56.10;;;;;;5071669;28;19935;-69
2022/06/23 03:06:39;;;;;;;;;;;22.20;56.10;;;;;;5072712;28;19928;-70
2022/06/23 03:09:10;;;;;;;;;;;22.20;56.00;;;;;;5074497;28;20002;-71
2022/06/23 03:11:54;;;;;;;;;;;22.20;56.00;;;;;;5072866;28;19939;-72
2022/06/23 03:14:29;;;;;;;;;;;22.20;55.90;;;;;;5072692;28;19924;-69
2022/06/23 03:16:57;;;;;;;;;;;22.20;56.00;;;;;;5074213;28;19928;-70
2022/06/23 03:19:32;;;;;;;;;;;22.20;56.00;;;;;;5073117;28;19976;-69
2022/06/23 03:22:07;;;;;;;;;;;22.20;56.00;;;;;;5072754;28;20334;-68
2022/06/23 03:24:41;;;;;;;;;;;22.20;56.00;;;;;;5072270;28;19931;-70
2022/06/23 03:27:33;;;;;;;;;;;22.20;56.10;;;;;;5072969;28;20716;-69
2022/06/23 03:30:06;;;;;;;;;;;22.20;56.20;;;;;;5072909;28;20324;-71
2022/06/23 03:32:39;;;;;;;;;;;22.20;56.20;;;;;;5072660;28;19927;-71
2022/06/23 03:35:22;;;;;;;;;;;22.20;56.20;;;;;;5071850;28;19920;-71
2022/06/23 03:37:57;;;;;;;;;;;22.20;56.20;;;;;;5073708;28;19920;-71
2022/06/23 03:43:31;;;;;;;;;;;22.20;56.20;;;;;;5071774;28;20299;-72
2022/06/23 03:46:06;;;;;;;;;;;22.20;56.20;;;;;;5073007;28;19931;-71
2022/06/23 03:48:40;;;;;;;;;;;22.20;56.20;;;;;;5069827;28;19929;-69
2022/06/23 03:51:12;;;;;;;;;;;22.20;56.20;;;;;;5072450;28;19927;-71
2022/06/23 03:53:45;;;;;;;;;;;22.20;56.10;;;;;;5069508;28;19933;-71
2022/06/23 03:56:14;;;;;;;;;;;22.20;56.10;;;;;;5074115;28;19920;-70
2022/06/23 03:58:40;;;;;;;;;;;22.20;56.10;;;;;;5072816;28;19924;-70
2022/06/23 04:01:11;;;;;;;;;;;22.20;56.10;;;;;;5071083;28;20449;-71
2022/06/23 04:03:42;;;;;;;;;;;22.20;56.10;;;;;;5072769;28;20394;-71
2022/06/23 04:06:16;;;;;;;;;;;22.20;56.10;;;;;;5072624;28;20563;-70
2022/06/23 04:09:14;;;;;;;;;;;22.20;56.10;;;;;;5073520;28;19928;-71
2022/06/23 04:11:54;;;;;;;;;;;22.20;56.00;;;;;;5064642;28;19969;-68
2022/06/23 04:14:20;;;;;;;;;;;22.20;56.00;;;;;;5073075;28;19967;-70
2022/06/23 04:16:48;;;;;;;;;;;22.20;56.00;;;;;;5073261;28;20038;-70
2022/06/23 04:19:17;;;;;;;;;;;22.20;56.00;;;;;;5074412;28;19935;-69
2022/06/23 04:21:44;;;;;;;;;;;22.20;56.00;;;;;;5071182;28;19977;-69
2022/06/23 04:24:15;;;;;;;;;;;22.20;56.00;;;;;;5072647;28;19928;-70
2022/06/23 04:26:42;;;;;;;;;;;22.20;55.90;;;;;;5070257;28;19921;-70
2022/06/23 04:29:10;;;;;;;;;;;22.20;55.90;;;;;;5056033;28;20003;-70
2022/06/23 04:31:40;;;;;;;;;;;22.20;55.90;;;;;;5070561;28;19932;-70
2022/06/23 04:34:06;;;;;;;;;;;22.20;55.90;;;;;;5072812;28;19993;-70
2022/06/23 04:36:33;;;;;;;;;;;22.20;55.90;;;;;;5069079;28;20094;-69
2022/06/23 04:39:07;;;;;;;;;;;22.20;55.90;;;;;;5066517;28;19981;-68
2022/06/23 04:41:37;;;;;;;;;;;22.10;55.90;;;;;;5061255;28;21547;-68
2022/06/23 04:44:08;;;;;;;;;;;22.10;55.90;;;;;;5067879;28;20004;-69
2022/06/23 04:46:37;;;;;;;;;;;22.20;56.00;;;;;;5068507;28;19924;-69
2022/06/23 04:49:18;;;;;;;;;;;22.10;55.90;;;;;;5069583;28;19924;-69
2022/06/23 04:51:52;;;;;;;;;;;22.10;55.90;;;;;;5070660;28;19969;-69
2022/06/23 04:54:24;;;;;;;;;;;22.10;55.90;;;;;;5074013;28;19959;-70
2022/06/23 04:56:52;;;;;;;;;;;22.10;55.90;;;;;;5070793;28;19929;-70
2022/06/23 04:59:28;;;;;;;;;;;22.20;56.00;;;;;;5054348;28;19978;-69
2022/06/23 05:01:56;;;;;;;;;;;22.10;55.90;;;;;;5072192;28;19924;-69
2022/06/23 05:04:23;;;;;;;;;;;22.20;55.90;;;;;;5069888;28;19975;-70
2022/06/23 05:06:51;;;;;;;;;;;22.10;55.80;;;;;;5071159;28;19928;-69
2022/06/23 05:09:22;;;;;;;;;;;22.10;55.70;;;;;;5070776;28;19927;-69
2022/06/23 05:11:52;;;;;;;;;;;22.10;55.80;;;;;;5077940;28;19931;-69
2022/06/23 05:14:28;;;;;;;;;;;22.10;55.80;;;;;;5070134;28;19929;-69
2022/06/23 05:16:56;;;;;;;;;;;22.10;55.80;;;;;;5072694;28;20035;-68
2022/06/23 05:19:30;;;;;;;;;;;22.10;55.80;;;;;;5070734;28;20333;-70
2022/06/23 05:22:28;;;;;;;;;;;22.10;55.90;;;;;;5067755;28;19924;-69
2022/06/23 05:24:54;;;;;;;;;;;22.10;55.80;;;;;;5060866;28;19925;-69
2022/06/23 05:27:20;;;;;;;;;;;22.10;55.80;;;;;;5068099;28;20008;-69
2022/06/23 05:29:51;;;;;;;;;;;22.10;55.90;;;;;;5068360;28;20008;-70
2022/06/23 05:32:21;;;;;;;;;;;22.10;55.90;;;;;;5069224;28;20450;-68
2022/06/23 05:34:49;;;;;;;;;;;22.10;55.90;;;;;;5067521;28;19924;-70
2022/06/23 05:37:14;;;;;;;;;;;22.10;56.00;;;;;;5067100;28;19920;-70
2022/06/23 05:39:43;;;;;;;;;;;22.10;55.90;;;;;;5070097;28;19930;-68
2022/06/23 05:42:16;;;;;;;;;;;22.10;56.70;;;;;;5067960;28;19935;-69
2022/06/23 05:45:14;;;;;;;;;;;22.10;56.00;;;;;;5070278;28;19990;-70
2022/06/23 05:47:39;;;;;;;;;;;22.10;56.00;;;;;;5051874;28;20003;-70
2022/06/23 05:50:08;;;;;;;;;;;22.10;56.00;;;;;;5069363;28;19967;-70
2022/06/23 05:52:40;;;;;;;;;;;22.10;56.00;;;;;;5069847;28;19924;-68
2022/06/23 05:55:25;;;;;;;;;;;22.10;56.00;;;;;;5071245;28;19931;-69
2022/06/23 05:57:51;;;;;;;;;;;22.10;55.90;;;;;;5067790;28;20426;-71
2022/06/23 06:00:21;;;;;;;;;;;22.10;55.90;;;;;;5071014;28;19924;-70
2022/06/23 06:02:52;;;;;;;;;;;22.10;55.80;;;;;;5071011;28;20487;-69
2022/06/23 06:05:23;;;;;;;;;;;22.10;55.80;;;;;;5071637;28;20631;-70
2022/06/23 06:07:48;;;;;;;;;;;22.10;56.30;;;;;;5071732;28;19924;-71
2022/06/23 06:10:17;;;;;;;;;;;22.10;56.40;;;;;;5068827;28;20562;-70
2022/06/23 06:12:42;;;;;;;;;;;22.10;56.70;;;;;;5071209;28;19931;-70
2022/06/23 06:15:15;;;;;;;;;;;22.20;56.90;;;;;;5070640;28;19920;-71
2022/06/23 06:17:41;;;;;;;;;;;22.10;56.90;;;;;;5070950;28;20121;-71
2022/06/23 06:20:08;;;;;;;;;;;22.10;57.00;;;;;;5071293;28;20365;-70
2022/06/23 06:22:41;;;;;;;;;;;22.20;57.20;;;;;;5069886;28;19932;-71
2022/06/23 06:25:14;;;;;;;;;;;22.10;57.30;;;;;;5068878;28;19935;-71
2022/06/23 06:27:41;;;;;;;;;;;22.20;57.50;;;;;;5072040;28;20434;-70
2022/06/23 06:30:13;;;;;;;;;;;22.20;57.70;;;;;;5072416;28;20015;-70
2022/06/23 06:32:39;;;;;;;;;;;22.10;57.60;;;;;;5071321;28;20268;-70
2022/06/23 06:35:05;;;;;;;;;;;22.20;57.60;;;;;;5070844;28;20949;-71
2022/06/23 06:37:34;;;;;;;;;;;22.10;58.00;;;;;;5067555;28;20501;-70
2022/06/23 06:40:00;;;;;;;;;;;22.20;58.00;;;;;;5070230;28;19924;-70
2022/06/23 06:42:32;;;;;;;;;;;22.20;58.20;;;;;;5072042;28;19924;-71
2022/06/23 06:44:59;;;;;;;;;;;22.20;58.20;;;;;;5072097;28;20296;-70
2022/06/23 06:47:27;;;;;;;;;;;22.20;58.20;;;;;;5068624;28;20450;-71
2022/06/23 06:49:53;;;;;;;;;;;22.20;58.30;;;;;;5071779;28;19924;-71
2022/06/23 06:52:19;;;;;;;;;;;22.20;58.00;;;;;;5068049;28;20326;-70
2022/06/23 06:54:48;;;;;;;;;;;22.20;58.20;;;;;;5070362;28;20543;-69
2022/06/23 06:57:18;;;;;;;;;;;22.20;58.30;;;;;;5071756;28;19924;-70
2022/06/23 07:00:13;;;;;;;;;;;22.20;58.20;;;;;;5071975;28;20252;-73
2022/06/23 07:02:43;;;;;;;;;;;22.20;58.20;;;;;;5068769;28;19959;-71
2022/06/23 07:05:11;;;;;;;;;;;22.20;58.00;;;;;;5075217;28;20714;-72
2022/06/23 07:07:40;;;;;;;;;;;22.20;58.10;;;;;;5070152;28;20015;-72
2022/06/23 07:10:16;;;;;;;;;;;22.20;58.30;;;;;;5073474;28;19924;-69
2022/06/23 07:12:48;;;;;;;;;;;22.20;58.20;;;;;;5068631;28;20259;-70
2022/06/23 07:15:19;;;;;;;;;;;22.20;58.00;;;;;;5061452;28;20352;-67
2022/06/23 07:17:48;;;;;;;;;;;22.20;57.90;;;;;;5068173;28;20071;-68
2022/06/23 07:20:16;;;;;;;;;;;22.20;57.90;;;;;;5067153;28;19953;-68
2022/06/23 07:22:46;;;;;;;;;;;22.20;57.90;;;;;;5068288;28;19931;-68
2022/06/23 07:25:19;;;;;;;;;;;22.20;57.90;;;;;;5067149;28;20008;-68
2022/06/23 07:28:00;;;;;;;;;;;22.20;57.70;;;;;;5069944;28;19927;-68
2022/06/23 07:30:26;;;;;;;;;;;22.20;57.80;;;;;;5073185;28;19929;-70
2022/06/23 07:32:54;;;;;;;;;;;22.20;58.10;;;;;;5114407;27;20289;-68
2022/06/23 07:35:23;;;;;;;;;;;22.20;58.20;;;;;;5113692;27;19980;-70
2022/06/23 07:37:53;;;;;;;;;;;22.20;58.70;;;;;;5113903;27;19993;-68
2022/06/23 07:40:21;;;;;;;;;;;22.20;58.00;;;;;;5113125;27;19931;-68
2022/06/23 07:43:02;;;;;;;;;;;22.20;58.00;;;;;;5108477;27;19924;-68
2022/06/23 07:45:51;;;;;;;;;;;22.20;58.10;;;;;;5111526;27;19939;-68
2022/06/23 07:48:17;;;;;;;;;;;22.20;58.10;;;;;;5105638;27;19923;-69
2022/06/23 07:50:43;;;;;;;;;;;22.20;58.50;;;;;;5094218;27;19919;-68
2022/06/23 07:53:13;;;;;;;;;;;22.20;59.60;;;;;;5101541;27;19927;-68
2022/06/23 07:55:40;;;;;;;;;;;22.20;59.70;;;;;;5095928;27;20112;-68
2022/06/23 07:58:07;;;;;;;;;;;22.30;60.20;;;;;;5115844;27;19923;-68
2022/06/23 08:00:35;;;;;;;;;;;22.20;60.50;;;;;;5114680;27;19927;-69
2022/06/23 08:03:03;;;;;;;;;;;22.20;60.60;;;;;;5115947;27;19965;-68
2022/06/23 08:05:34;;;;;;;;;;;22.20;61.00;;;;;;5115276;27;19928;-68
2022/06/23 08:08:00;;;;;;;;;;;22.20;61.10;;;;;;5113584;27;19934;-68
2022/06/23 08:10:27;;;;;;;;;;;22.30;61.30;;;;;;5111975;27;19923;-67
2022/06/23 08:12:57;;;;;;;;;;;22.30;61.00;;;;;;5109317;27;19932;-68
2022/06/23 08:18:24;;;;;;;;;;;22.30;60.50;;;;;;5100224;27;19924;-68
2022/06/23 08:20:53;;;;;;;;;;;22.30;60.60;;;;;;5096412;27;20014;-68
2022/06/23 08:23:20;;;;;;;;;;;22.30;60.70;;;;;;5113623;27;20014;-68
2022/06/23 08:25:46;;;;;;;;;;;22.30;60.70;;;;;;5116859;27;19950;-68
2022/06/23 08:28:11;;;;;;;;;;;22.30;60.90;;;;;;5111588;27;19927;-68
2022/06/23 08:30:39;;;;;;;;;;;22.30;60.80;;;;;;5113294;27;19950;-67
2022/06/23 08:33:05;;;;;;;;;;;22.30;60.70;;;;;;5115138;27;19919;-68
2022/06/23 08:35:42;;;;;;;;;;;22.30;60.20;;;;;;5093898;27;19923;-68
2022/06/23 08:38:10;;;;;;;;;;;22.30;60.20;;;;;;5115741;27;19927;-68
2022/06/23 08:40:38;;;;;;;;;;;22.30;60.20;;;;;;5112353;27;20355;-68
2022/06/23 08:43:14;;;;;;;;;;;22.30;60.30;;;;;;5111406;27;20347;-68
2022/06/23 08:45:45;;;;;;;;;;;22.40;60.70;;;;;;5109297;27;19938;-67
2022/06/23 08:48:33;;;;;;;;;;;22.30;60.80;;;;;;5114026;27;19926;-67
2022/06/23 08:51:01;;;;;;;;;;;22.40;61.10;;;;;;5113371;27;20632;-67
2022/06/23 08:53:45;;;;;;;;;;;22.40;61.00;;;;;;5112411;27;19930;-68
2022/06/23 08:56:40;;;;;;;;;;;22.40;61.10;;;;;;5110650;27;19923;-68
2022/06/23 08:59:06;;;;;;;;;;;22.40;61.50;;;;;;5101809;27;20331;-68
2022/06/23 09:01:36;;;;;;;;;;;22.40;61.30;;;;;;5112514;27;19926;-69
2022/06/23 09:04:05;;;;;;;;;;;22.50;61.20;;;;;;5112341;27;19923;-69
2022/06/23 09:06:36;;;;;;;;;;;22.50;61.20;;;;;;5113391;27;19924;-68
2022/06/23 09:09:15;;;;;;;;;;;22.50;60.80;;;;;;5113252;27;20002;-68
2022/06/23 09:11:50;;;;;;;;;;;22.50;60.80;;;;;;5110732;27;20398;-69
2022/06/23 09:14:35;;;;;;;;;;;22.50;60.80;;;;;;5094038;27;19966;-68
2022/06/23 09:17:13;;;;;;;;;;;22.50;60.60;;;;;;5111953;27;19923;-70
2022/06/23 09:19:51;;;;;;;;;;;22.60;60.50;;;;;;5112340;27;20018;-70
2022/06/23 09:22:39;;;;;;;;;;;22.60;60.90;;;;;;5095591;27;19923;-69
2022/06/23 09:25:11;;;;;;;;;;;22.60;60.70;;;;;;5094299;27;19923;-69
2022/06/23 09:27:50;;;;;;;;;;;22.60;61.00;;;;;;5111672;27;19928;-68
2022/06/23 09:30:28;;;;;;;;;;;22.60;61.10;;;;;;5113131;27;20002;-69
2022/06/23 09:33:05;;;;;;;;;;;22.70;60.60;;;;;;5112094;27;19996;-69
2022/06/23 09:35:30;;;;;;;;;;;22.70;60.20;;;;;;5110978;27;20416;-69
2022/06/23 09:38:09;;;;;;;;;;;22.70;60.00;;;;;;5093179;27;19929;-69
2022/06/23 09:40:56;;;;;;;;;;;22.80;59.90;;;;;;5108668;27;19927;-67
2022/06/23 09:43:41;;;;;;;;;;;22.80;60.10;;;;;;5110463;27;20064;-67
2022/06/23 09:46:13;;;;;;;;;;;22.80;60.00;;;;;;5108315;27;19968;-67
2022/06/23 09:48:44;;;;;;;;;;;22.80;59.90;;;;;;5112442;27;19942;-68
2022/06/23 09:51:18;;;;;;;;;;;22.80;60.10;;;;;;5111205;27;19939;-68
2022/06/23 09:53:56;;;;;;;;;;;22.80;60.30;;;;;;5112355;27;19923;-69
2022/06/23 09:56:39;;;;;;;;;;;22.70;60.40;;;;;;5112467;27;20386;-68
2022/06/23 09:59:11;;;;;;;;;;;22.70;60.40;;;;;;5110545;27;19930;-73
2022/06/23 10:01:56;;;;;;;;;;;22.70;60.40;;;;;;5110426;27;19930;-68
2022/06/23 10:04:28;;;;;;;;;;;22.70;60.60;;;;;;5091619;27;20655;-69
2022/06/23 10:07:05;;;;;;;;;;;22.70;60.50;;;;;;5111710;27;20002;-69
2022/06/23 10:09:48;;;;;;;;;;;22.70;60.50;;;;;;5109008;27;19927;-70
2022/06/23 10:12:38;;;;;;;;;;;22.70;60.40;;;;;;5112986;27;19927;-70
2022/06/23 10:15:06;;;;;;;;;;;22.60;60.40;;;;;;5113871;27;19966;-69
2022/06/23 10:17:34;;;;;;;;;;;22.60;60.70;;;;;;5114313;27;20413;-71
2022/06/23 10:20:00;;;;;;;;;;;22.60;60.80;;;;;;5110214;27;20401;-70
2022/06/23 10:22:32;;;;;;;;;;;22.60;61.00;;;;;;5084709;28;19923;-71
2022/06/23 10:24:57;;;;;;;;;;;22.60;61.10;;;;;;5110260;28;20004;-70
2022/06/23 10:27:38;;;;;;;;;;;22.60;61.00;;;;;;5112268;27;19920;-70
2022/06/23 10:30:10;;;;;;;;;;;22.60;61.00;;;;;;5100138;28;19927;-70
2022/06/23 10:32:54;;;;;;;;;;;22.60;60.80;;;;;;5112549;27;20275;-69
2022/06/23 10:35:29;;;;;;;;;;;22.60;60.40;;;;;;5112916;27;19931;-68
2022/06/23 10:38:13;;;;;;;;;;;22.60;60.10;;;;;;5109510;27;20620;-68
2022/06/23 10:40:54;;;;;;;;;;;22.60;59.90;;;;;;5108130;27;19927;-68
2022/06/23 10:43:38;;;;;;;;;;;22.60;59.80;;;;;;5112735;28;19934;-68
2022/06/23 10:46:13;;;;;;;;;;;22.60;59.80;;;;;;5113303;28;20296;-68
2022/06/23 10:48:44;;;;;;;;;;;22.60;59.80;;;;;;5114734;28;19927;-68
2022/06/23 10:51:22;;;;;;;;;;;22.60;59.80;;;;;;5108995;27;19927;-68
2022/06/23 10:53:47;;;;;;;;;;;22.60;59.70;;;;;;5110429;27;20350;-68
2022/06/23 10:56:22;;;;;;;;;;;22.60;59.70;;;;;;5111135;27;19968;-68
2022/06/23 10:58:48;;;;;;;;;;;22.60;59.70;;;;;;5110909;28;19969;-68
2022/06/23 11:01:23;;;;;;;;;;;22.60;59.70;;;;;;5110375;27;19919;-67
2022/06/23 11:03:54;;;;;;;;;;;22.60;59.70;;;;;;5115804;27;19923;-65
2022/06/23 11:06:20;;;;;;;;;;;22.60;59.80;;;;;;5113864;27;19927;-68
2022/06/23 11:08:58;;;;;;;;;;;22.60;59.70;;;;;;5116655;27;19930;-67
2022/06/23 11:11:29;;;;;;;;;;;22.60;59.80;;;;;;5094728;27;19927;-67
2022/06/23 11:13:58;;;;;;;;;;;22.60;59.60;;;;;;5114178;27;19919;-65
2022/06/23 11:16:38;;;;;;;;;;;22.60;59.60;;;;;;5090430;27;19927;-67
2022/06/23 11:19:04;;;;;;;;;;;22.70;59.70;;;;;;5114121;27;20383;-67
2022/06/23 11:21:48;;;;;;;;;;;22.60;59.60;;;;;;5115281;27;20026;-67
2022/06/23 11:24:22;;;;;;;;;;;22.60;59.60;;;;;;5114711;27;20358;-69
2022/06/23 11:27:06;;;;;;;;;;;22.70;59.70;;;;;;5113867;27;19927;-67
2022/06/23 11:29:52;;;;;;;;;;;22.60;59.60;;;;;;5095455;27;20016;-67
2022/06/23 11:32:36;;;;;;;;;;;22.70;60.40;;;;;;5113870;27;20663;-67
2022/06/23 11:35:21;;;;;;;;;;;22.60;59.40;;;;;;5094565;27;19923;-68
2022/06/23 11:38:05;;;;;;;;;;;22.60;60.00;;;;;;5112280;27;19931;-68
2022/06/23 11:40:38;;;;;;;;;;;22.70;59.40;;;;;;5112701;27;19931;-68
2022/06/23 11:43:03;;;;;;;;;;;22.60;59.20;;;;;;5114007;27;20010;-68
2022/06/23 11:45:42;;;;;;;;;;;22.70;59.20;;;;;;5115671;27;20362;-69
2022/06/23 11:48:26;;;;;;;;;;;22.70;59.80;;;;;;5113768;27;19930;-71
2022/06/23 11:50:58;;;;;;;;;;;22.70;59.50;;;;;;5115553;27;20652;-68
2022/06/23 11:53:32;;;;;;;;;;;22.70;58.90;;;;;;5077668;27;19930;-68
2022/06/23 11:56:21;;;;;;;;;;;22.70;58.70;;;;;;5114399;27;19923;-68
2022/06/23 11:58:56;;;;;;;;;;;22.70;58.90;;;;;;5109352;27;20619;-68
2022/06/23 12:01:23;;;;;;;;;;;22.70;58.80;;;;;;5095918;27;19937;-69
2022/06/23 12:03:54;;;;;;;;;;;22.70;58.60;;;;;;5102801;27;19983;-69
2022/06/23 12:06:26;;;;;;;;;;;22.70;58.50;;;;;;5114179;27;19928;-67
2022/06/23 12:08:58;;;;;;;;;;;22.70;58.30;;;;;;5096606;27;20260;-69
2022/06/23 12:11:24;;;;;;;;;;;22.70;58.30;;;;;;5114199;27;20474;-68
2022/06/23 12:13:50;;;;;;;;;;;22.70;58.20;;;;;;5095778;27;19938;-69
2022/06/23 12:16:16;;;;;;;;;;;22.70;58.20;;;;;;5113913;27;19920;-67
2022/06/23 12:18:48;;;;;;;;;;;22.70;58.40;;;;;;5095395;27;20034;-70
2022/06/23 12:21:13;;;;;;;;;;;22.70;58.00;;;;;;5113152;27;19926;-67
2022/06/23 12:23:42;;;;;;;;;;;22.70;58.20;;;;;;5113219;27;19927;-68
2022/06/23 12:26:16;;;;;;;;;;;22.70;58.10;;;;;;5116454;27;19924;-69
2022/06/23 12:28:51;;;;;;;;;;;22.70;58.00;;;;;;5110829;27;19924;-67
2022/06/23 12:31:40;;;;;;;;;;;22.70;57.90;;;;;;5114993;27;19923;-68
2022/06/23 12:34:26;;;;;;;;;;;22.70;57.90;;;;;;5113824;27;19919;-67
2022/06/23 12:36:54;;;;;;;;;;;22.70;57.90;;;;;;5115743;27;19927;-66
2022/06/23 12:39:29;;;;;;;;;;;22.70;57.80;;;;;;5111110;27;19966;-66
2022/06/23 12:41:58;;;;;;;;;;;22.70;57.50;;;;;;5110334;27;19923;-65
2022/06/23 12:44:44;;;;;;;;;;;22.70;57.30;;;;;;5112176;27;19923;-67
2022/06/23 12:47:28;;;;;;;;;;;22.70;57.20;;;;;;5079958;27;19923;-67
2022/06/23 12:50:00;;;;;;;;;;;22.70;57.20;;;;;;5115707;27;19924;-67
2022/06/23 12:52:40;;;;;;;;;;;22.70;57.20;;;;;;5108911;27;20342;-66
2022/06/23 12:55:08;;;;;;;;;;;22.70;57.10;;;;;;5109709;27;20006;-66
2022/06/23 12:57:45;;;;;;;;;;;22.70;57.50;;;;;;5109195;27;19935;-67
2022/06/23 13:00:18;;;;;;;;;;;22.80;58.00;;;;;;5112251;27;19927;-67
2022/06/23 13:02:49;;;;;;;;;;;22.80;58.10;;;;;;5111677;27;20150;-67
2022/06/23 13:05:26;;;;;;;;;;;22.80;58.10;;;;;;5112025;27;20489;-67
2022/06/23 13:07:56;;;;;;;;;;;22.80;58.10;;;;;;5110945;27;19928;-68
2022/06/23 13:10:29;;;;;;;;;;;22.80;58.10;;;;;;5092722;27;19989;-68
2022/06/23 13:12:57;;;;;;;;;;;22.80;58.20;;;;;;5113395;27;19924;-66
2022/06/23 13:15:33;;;;;;;;;;;22.80;57.70;;;;;;5103536;27;20346;-67
2022/06/23 13:18:04;;;;;;;;;;;22.80;57.30;;;;;;5113064;27;19988;-67
2022/06/23 13:20:33;;;;;;;;;;;22.80;57.00;;;;;;5112616;27;19935;-70
2022/06/23 13:23:09;;;;;;;;;;;22.80;57.00;;;;;;5111631;27;19928;-69
2022/06/23 13:25:40;;;;;;;;;;;22.80;56.90;;;;;;5092780;28;19934;-68
2022/06/23 13:28:06;;;;;;;;;;;22.80;56.90;;;;;;5111910;27;20293;-69
2022/06/23 13:30:41;;;;;;;;;;;22.80;57.10;;;;;;5111401;27;19946;-70
2022/06/23 13:33:11;;;;;;;;;;;22.80;57.20;;;;;;5112900;27;19923;-69
2022/06/23 13:35:59;;;;;;;;;;;22.80;58.20;;;;;;5111545;27;20001;-68
2022/06/23 13:38:32;;;;;;;;;;;22.80;58.40;;;;;;5100703;27;19930;-68
2022/06/23 13:41:01;;;;;;;;;;;22.90;58.80;;;;;;5111092;27;19930;-70
2022/06/23 13:43:40;;;;;;;;;;;22.90;59.00;;;;;;5111755;27;19919;-70
2022/06/23 13:46:05;;;;;;;;;;;22.80;59.00;;;;;;5113009;27;19931;-67
2022/06/23 13:48:33;;;;;;;;;;;22.90;59.80;;;;;;5112822;27;19924;-67
2022/06/23 13:51:02;;;;;;;;;;;22.90;59.00;;;;;;5076853;27;19965;-65
2022/06/23 13:53:30;;;;;;;;;;;22.90;59.00;;;;;;5110808;27;19947;-67
2022/06/23 13:56:02;;;;;;;;;;;22.90;58.70;;;;;;5106964;27;19923;-69
2022/06/23 13:58:47;;;;;;;;;;;22.90;58.50;;;;;;5076356;27;20331;-70
2022/06/23 14:01:19;;;;;;;;;;;22.90;58.30;;;;;;5109068;27;19923;-68
2022/06/23 14:03:49;;;;;;;;;;;22.90;58.60;;;;;;5112132;27;20019;-72
2022/06/23 14:06:21;;;;;;;;;;;22.90;58.40;;;;;;5110674;27;20014;-67
2022/06/23 14:08:50;;;;;;;;;;;22.90;58.00;;;;;;5108314;27;19923;-72
2022/06/23 14:11:22;;;;;;;;;;;22.90;58.00;;;;;;5096070;27;19963;-69
2022/06/23 14:13:47;;;;;;;;;;;22.90;57.90;;;;;;5112215;27;19965;-71
2022/06/23 14:16:15;;;;;;;;;;;22.90;57.80;;;;;;5114982;27;19954;-70
2022/06/23 14:18:51;;;;;;;;;;;22.90;57.80;;;;;;5113735;27;19927;-69
2022/06/23 14:21:29;;;;;;;;;;;22.90;57.70;;;;;;5109670;27;19924;-72
2022/06/23 14:24:00;;;;;;;;;;;22.90;57.70;;;;;;5095567;27;19928;-73
2022/06/23 14:26:33;;;;;;;;;;;22.90;57.70;;;;;;5112542;27;19930;-70
2022/06/23 14:29:01;;;;;;;;;;;22.90;57.80;;;;;;5110892;27;19924;-71
2022/06/23 14:31:42;;;;;;;;;;;22.90;57.90;;;;;;5111908;28;19924;-70
2022/06/23 14:34:14;;;;;;;;;;;22.90;57.90;;;;;;5095826;28;19927;-73
2022/06/23 14:36:53;;;;;;;;;;;22.90;57.90;;;;;;5112101;28;19927;-70
2022/06/23 14:39:21;;;;;;;;;;;22.90;58.00;;;;;;5111284;27;20072;-72
2022/06/23 14:41:56;;;;;;;;;;;22.90;58.00;;;;;;5111273;28;19926;-71
2022/06/23 14:44:44;;;;;;;;;;;22.90;57.90;;;;;;5109938;27;20440;-68
2022/06/23 14:47:16;;;;;;;;;;;23.00;58.10;;;;;;5076998;28;20365;-70
2022/06/23 14:49:56;;;;;;;;;;;23.00;58.20;;;;;;5110528;28;19974;-70
2022/06/23 14:52:40;;;;;;;;;;;22.90;58.30;;;;;;5110304;28;19931;-68
2022/06/23 14:55:14;;;;;;;;;;;23.00;58.40;;;;;;5111630;27;19933;-71
2022/06/23 14:57:45;;;;;;;;;;;23.00;59.10;;;;;;5112694;27;19934;-71